Aviation Digital Data Service (ADDS)

Output produced by TAFs form (1043 UTC 24 June 2018)
found at http://aviationweather.gov/adds/tafs/
 
KCWA 240520Z 2406/2506 12003KT P6SM SCT250 
     FM241400 12005KT P6SM SCT030 BKN120 
     FM242000 13006KT P6SM -SHRA SCT035 BKN100 
     FM242300 12006KT P6SM BKN150 
     FM250200 11005KT P6SM BKN200
       
KATW 240520Z 2406/2506 03003KT P6SM BKN200 
     FM241100 04004KT P6SM BKN060 
     FM241200 05004KT P6SM BKN035 
     FM241500 07009KT P6SM SCT035 BKN250 
     FM250200 04005KT P6SM SCT250
       
KGRB 240918Z 2409/2506 02006KT P6SM SCT090 BKN150 
     FM241500 07009KT P6SM BKN250 
     FM250200 04005KT P6SM SCT250
       
KMSN 240520Z 2406/2506 00000KT P6SM SCT200 
     FM241700 06005KT P6SM FEW040 SCT200 
     FM242200 09008KT P6SM FEW040 SCT200
       
KMKE 240836Z 2409/2512 00000KT P6SM BKN150 
     FM241600 02010G18KT P6SM BKN200 
     FM250200 03007KT P6SM FEW250